Terminal Aerodrome Forecast
Issued by NWS Cleveland, OH

Home | Current Version | Previous Version | Graphics & Text | Print | Product List | Glossary On
Versions: 1 2 3 4 5 6 7 8 9 10 11 12
754
FTUS41 KCLE 231721
TAFMFD
TAF
KMFD 231721Z 2318/2418 08008KT P6SM SCT250
     FM232100 03009KT P6SM BKN250
     FM240100 03004KT P6SM SCT250
     FM241500 08012KT P6SM SCT120 BKN250=

USA.gov is the U.S. government's official web portal to all federal, state and local government web resources and services.